sensor_id;sensor_type;location;lat;lon;timestamp;temperature;humidity
19365;DHT22;9818;48.382;10.850;2022-11-11T00:02:14;4.60;99.90
19365;DHT22;9818;48.382;10.850;2022-11-11T00:04:42;4.60;99.90
19365;DHT22;9818;48.382;10.850;2022-11-11T00:07:10;4.60;99.90
19365;DHT22;9818;48.382;10.850;2022-11-11T00:09:41;4.60;99.90
19365;DHT22;9818;48.382;10.850;2022-11-11T00:12:10;4.50;99.90
19365;DHT22;9818;48.382;10.850;2022-11-11T00:14:38;4.50;99.90
19365;DHT22;9818;48.382;10.850;2022-11-11T00:17:08;4.50;99.90
19365;DHT22;9818;48.382;10.850;2022-11-11T00:19:49;4.50;99.90
19365;DHT22;9818;48.382;10.850;2022-11-11T00:22:30;4.50;99.90
19365;DHT22;9818;48.382;10.850;2022-11-11T00:25:14;4.40;99.90
19365;DHT22;9818;48.382;10.850;2022-11-11T00:27:45;4.40;99.90
19365;DHT22;9818;48.382;10.850;2022-11-11T00:30:13;4.30;99.90
19365;DHT22;9818;48.382;10.850;2022-11-11T00:32:42;4.30;99.90
19365;DHT22;9818;48.382;10.850;2022-11-11T00:35:10;4.20;99.90
19365;DHT22;9818;48.382;10.850;2022-11-11T00:37:51;4.20;99.90
19365;DHT22;9818;48.382;10.850;2022-11-11T00:40:22;4.20;99.90
19365;DHT22;9818;48.382;10.850;2022-11-11T00:42:51;4.20;99.90
19365;DHT22;9818;48.382;10.850;2022-11-11T00:45:19;4.20;99.90
19365;DHT22;9818;48.382;10.850;2022-11-11T00:47:47;4.20;99.90
19365;DHT22;9818;48.382;10.850;2022-11-11T00:50:28;4.20;99.90
19365;DHT22;9818;48.382;10.850;2022-11-11T00:53:10;4.20;99.90
19365;DHT22;9818;48.382;10.850;2022-11-11T00:55:41;4.20;99.90
19365;DHT22;9818;48.382;10.850;2022-11-11T00:58:10;4.20;99.90
19365;DHT22;9818;48.382;10.850;2022-11-11T01:00:38;4.20;99.90
19365;DHT22;9818;48.382;10.850;2022-11-11T01:03:06;4.20;99.90
19365;DHT22;9818;48.382;10.850;2022-11-11T01:05:35;4.20;99.90
19365;DHT22;9818;48.382;10.850;2022-11-11T01:20:04;4.30;99.90
19365;DHT22;9818;48.382;10.850;2022-11-11T01:22:32;4.30;99.90
19365;DHT22;9818;48.382;10.850;2022-11-11T01:25:01;4.10;99.90
19365;DHT22;9818;48.382;10.850;2022-11-11T01:27:29;4.10;99.90
19365;DHT22;9818;48.382;10.850;2022-11-11T01:29:57;4.00;99.90
19365;DHT22;9818;48.382;10.850;2022-11-11T01:32:26;4.00;99.90
19365;DHT22;9818;48.382;10.850;2022-11-11T01:34:54;4.00;99.90
19365;DHT22;9818;48.382;10.850;2022-11-11T01:37:25;4.00;99.90
19365;DHT22;9818;48.382;10.850;2022-11-11T01:39:54;4.10;99.90
19365;DHT22;9818;48.382;10.850;2022-11-11T01:42:22;4.10;99.90
19365;DHT22;9818;48.382;10.850;2022-11-11T01:44:51;4.10;99.90
19365;DHT22;9818;48.382;10.850;2022-11-11T01:47:19;4.10;99.90
19365;DHT22;9818;48.382;10.850;2022-11-11T01:50:08;4.10;99.90
19365;DHT22;9818;48.382;10.850;2022-11-11T01:52:37;4.10;99.90
19365;DHT22;9818;48.382;10.850;2022-11-11T01:55:08;4.10;99.90
19365;DHT22;9818;48.382;10.850;2022-11-11T01:57:38;4.10;99.90
19365;DHT22;9818;48.382;10.850;2022-11-11T02:00:08;4.10;99.90
19365;DHT22;9818;48.382;10.850;2022-11-11T02:02:38;4.10;99.90
19365;DHT22;9818;48.382;10.850;2022-11-11T02:05:07;4.10;99.90
19365;DHT22;9818;48.382;10.850;2022-11-11T02:07:51;4.00;99.90
19365;DHT22;9818;48.382;10.850;2022-11-11T02:10:21;4.10;99.90
19365;DHT22;9818;48.382;10.850;2022-11-11T02:12:51;4.10;99.90
19365;DHT22;9818;48.382;10.850;2022-11-11T02:15:31;4.00;99.90
19365;DHT22;9818;48.382;10.850;2022-11-11T02:18:00;4.10;99.90
19365;DHT22;9818;48.382;10.850;2022-11-11T02:20:29;4.10;99.90
19365;DHT22;9818;48.382;10.850;2022-11-11T02:23:02;4.00;99.90
19365;DHT22;9818;48.382;10.850;2022-11-11T02:25:35;3.90;99.90
19365;DHT22;9818;48.382;10.850;2022-11-11T02:28:04;3.90;99.90
19365;DHT22;9818;48.382;10.850;2022-11-11T02:30:34;3.90;99.90
19365;DHT22;9818;48.382;10.850;2022-11-11T02:33:02;3.90;99.90
19365;DHT22;9818;48.382;10.850;2022-11-11T02:35:32;3.90;99.90
19365;DHT22;9818;48.382;10.850;2022-11-11T02:38:01;3.80;99.90
19365;DHT22;9818;48.382;10.850;2022-11-11T02:40:38;3.90;99.90
19365;DHT22;9818;48.382;10.850;2022-11-11T02:43:26;3.90;99.90
19365;DHT22;9818;48.382;10.850;2022-11-11T02:45:55;3.90;99.90
19365;DHT22;9818;48.382;10.850;2022-11-11T02:48:24;3.90;99.90
19365;DHT22;9818;48.382;10.850;2022-11-11T02:50:52;3.90;99.90
19365;DHT22;9818;48.382;10.850;2022-11-11T02:53:21;3.80;99.90
19365;DHT22;9818;48.382;10.850;2022-11-11T02:55:52;3.70;99.90
19365;DHT22;9818;48.382;10.850;2022-11-11T02:58:20;3.70;99.90
19365;DHT22;9818;48.382;10.850;2022-11-11T03:00:49;3.60;99.90
19365;DHT22;9818;48.382;10.850;2022-11-11T03:03:17;3.50;99.90
19365;DHT22;9818;48.382;10.850;2022-11-11T03:05:46;3.60;99.90
19365;DHT22;9818;48.382;10.850;2022-11-11T03:08:14;3.60;99.90
19365;DHT22;9818;48.382;10.850;2022-11-11T03:10:42;3.60;99.90
19365;DHT22;9818;48.382;10.850;2022-11-11T03:13:13;3.60;99.90
19365;DHT22;9818;48.382;10.850;2022-11-11T03:15:42;3.60;99.90
19365;DHT22;9818;48.382;10.850;2022-11-11T03:18:10;3.60;99.90
19365;DHT22;9818;48.382;10.850;2022-11-11T03:20:36;3.60;99.90
19365;DHT22;9818;48.382;10.850;2022-11-11T03:23:17;3.60;99.90
19365;DHT22;9818;48.382;10.850;2022-11-11T03:25:46;3.50;99.90
19365;DHT22;9818;48.382;10.850;2022-11-11T03:28:18;3.50;99.90
19365;DHT22;9818;48.382;10.850;2022-11-11T03:30:49;3.50;99.90
19365;DHT22;9818;48.382;10.850;2022-11-11T03:33:17;3.40;99.90
19365;DHT22;9818;48.382;10.850;2022-11-11T03:35:46;3.50;99.90
19365;DHT22;9818;48.382;10.850;2022-11-11T03:38:15;3.50;99.90
19365;DHT22;9818;48.382;10.850;2022-11-11T03:40:41;3.50;99.90
19365;DHT22;9818;48.382;10.850;2022-11-11T03:43:09;3.40;99.90
19365;DHT22;9818;48.382;10.850;2022-11-11T03:45:40;3.40;99.90
19365;DHT22;9818;48.382;10.850;2022-11-11T03:48:09;3.40;99.90
19365;DHT22;9818;48.382;10.850;2022-11-11T03:50:37;3.40;99.90
19365;DHT22;9818;48.382;10.850;2022-11-11T03:53:06;3.40;99.90
19365;DHT22;9818;48.382;10.850;2022-11-11T03:55:35;3.40;99.90
19365;DHT22;9818;48.382;10.850;2022-11-11T03:58:03;3.40;99.90
19365;DHT22;9818;48.382;10.850;2022-11-11T04:00:31;3.20;99.90
19365;DHT22;9818;48.382;10.850;2022-11-11T04:03:03;3.20;99.90
19365;DHT22;9818;48.382;10.850;2022-11-11T04:05:44;3.10;99.90
19365;DHT22;9818;48.382;10.850;2022-11-11T04:08:25;3.00;99.90
19365;DHT22;9818;48.382;10.850;2022-11-11T04:11:06;3.00;99.90
19365;DHT22;9818;48.382;10.850;2022-11-11T04:13:35;3.00;99.90
19365;DHT22;9818;48.382;10.850;2022-11-11T04:16:22;2.90;99.90
19365;DHT22;9818;48.382;10.850;2022-11-11T04:18:53;2.90;99.90
19365;DHT22;9818;48.382;10.850;2022-11-11T04:21:34;2.90;99.90
19365;DHT22;9818;48.382;10.850;2022-11-11T04:24:12;2.90;99.90
19365;DHT22;9818;48.382;10.850;2022-11-11T04:26:54;3.00;99.90
19365;DHT22;9818;48.382;10.850;2022-11-11T04:29:22;3.00;99.90
19365;DHT22;9818;48.382;10.850;2022-11-11T04:31:58;3.00;99.90
19365;DHT22;9818;48.382;10.850;2022-11-11T04:34:42;3.10;99.90
19365;DHT22;9818;48.382;10.850;2022-11-11T04:37:10;3.10;99.90
19365;DHT22;9818;48.382;10.850;2022-11-11T04:39:39;3.10;99.90
19365;DHT22;9818;48.382;10.850;2022-11-11T04:42:19;3.10;99.90
19365;DHT22;9818;48.382;10.850;2022-11-11T04:44:48;3.00;99.90
19365;DHT22;9818;48.382;10.850;2022-11-11T04:47:29;3.10;99.90
19365;DHT22;9818;48.382;10.850;2022-11-11T04:50:00;3.10;99.90
19365;DHT22;9818;48.382;10.850;2022-11-11T04:52:29;3.20;99.90
19365;DHT22;9818;48.382;10.850;2022-11-11T04:54:58;3.40;99.90
19365;DHT22;9818;48.382;10.850;2022-11-11T04:57:40;3.40;99.90
19365;DHT22;9818;48.382;10.850;2022-11-11T05:00:10;3.50;99.90
19365;DHT22;9818;48.382;10.850;2022-11-11T05:02:39;3.40;99.90
19365;DHT22;9818;48.382;10.850;2022-11-11T05:05:22;3.40;99.90
19365;DHT22;9818;48.382;10.850;2022-11-11T05:07:51;3.40;99.90
19365;DHT22;9818;48.382;10.850;2022-11-11T05:10:31;3.40;99.90
19365;DHT22;9818;48.382;10.850;2022-11-11T05:13:00;3.40;99.90
19365;DHT22;9818;48.382;10.850;2022-11-11T05:15:41;3.40;99.90
19365;DHT22;9818;48.382;10.850;2022-11-11T05:18:22;3.40;99.90
19365;DHT22;9818;48.382;10.850;2022-11-11T05:21:06;3.40;99.90
19365;DHT22;9818;48.382;10.850;2022-11-11T05:23:50;3.30;99.90
19365;DHT22;9818;48.382;10.850;2022-11-11T05:26:31;3.30;99.90
19365;DHT22;9818;48.382;10.850;2022-11-11T05:28:59;3.30;99.90
19365;DHT22;9818;48.382;10.850;2022-11-11T05:31:27;3.30;99.90
19365;DHT22;9818;48.382;10.850;2022-11-11T05:33:56;3.20;99.90
19365;DHT22;9818;48.382;10.850;2022-11-11T05:36:27;3.10;99.90
19365;DHT22;9818;48.382;10.850;2022-11-11T05:38:55;3.20;99.90
19365;DHT22;9818;48.382;10.850;2022-11-11T05:41:24;3.10;99.90
19365;DHT22;9818;48.382;10.850;2022-11-11T05:43:52;3.10;99.90
19365;DHT22;9818;48.382;10.850;2022-11-11T05:46:20;3.10;99.90
19365;DHT22;9818;48.382;10.850;2022-11-11T05:48:49;3.10;99.90
19365;DHT22;9818;48.382;10.850;2022-11-11T05:51:32;3.10;99.90
19365;DHT22;9818;48.382;10.850;2022-11-11T05:54:01;3.10;99.90
19365;DHT22;9818;48.382;10.850;2022-11-11T05:56:29;3.10;99.90
19365;DHT22;9818;48.382;10.850;2022-11-11T05:58:57;3.10;99.90
19365;DHT22;9818;48.382;10.850;2022-11-11T06:01:26;3.10;99.90
19365;DHT22;9818;48.382;10.850;2022-11-11T06:03:54;3.00;99.90
19365;DHT22;9818;48.382;10.850;2022-11-11T06:06:23;3.00;99.90
19365;DHT22;9818;48.382;10.850;2022-11-11T06:08:54;3.00;99.90
19365;DHT22;9818;48.382;10.850;2022-11-11T06:11:22;3.00;99.90
19365;DHT22;9818;48.382;10.850;2022-11-11T06:13:52;3.00;99.90
19365;DHT22;9818;48.382;10.850;2022-11-11T06:16:20;3.00;99.90
19365;DHT22;9818;48.382;10.850;2022-11-11T06:18:49;3.10;99.90
19365;DHT22;9818;48.382;10.850;2022-11-11T06:21:18;3.10;99.90
19365;DHT22;9818;48.382;10.850;2022-11-11T06:23:46;3.00;99.90
19365;DHT22;9818;48.382;10.850;2022-11-11T06:26:17;3.10;99.90
19365;DHT22;9818;48.382;10.850;2022-11-11T06:28:44;3.20;99.90
19365;DHT22;9818;48.382;10.850;2022-11-11T06:31:13;3.30;99.90
19365;DHT22;9818;48.382;10.850;2022-11-11T06:33:42;3.30;99.90
19365;DHT22;9818;48.382;10.850;2022-11-11T06:36:11;3.30;99.90
19365;DHT22;9818;48.382;10.850;2022-11-11T06:38:40;3.30;99.90
19365;DHT22;9818;48.382;10.850;2022-11-11T06:41:09;3.40;99.90
19365;DHT22;9818;48.382;10.850;2022-11-11T06:43:40;3.50;99.90
19365;DHT22;9818;48.382;10.850;2022-11-11T06:46:10;3.60;99.90
19365;DHT22;9818;48.382;10.850;2022-11-11T06:48:41;3.60;99.90
19365;DHT22;9818;48.382;10.850;2022-11-11T06:51:09;3.60;99.90
19365;DHT22;9818;48.382;10.850;2022-11-11T06:53:38;3.50;99.90
19365;DHT22;9818;48.382;10.850;2022-11-11T06:56:07;3.60;99.90
19365;DHT22;9818;48.382;10.850;2022-11-11T06:58:37;3.60;99.90
19365;DHT22;9818;48.382;10.850;2022-11-11T07:01:08;3.60;99.90
19365;DHT22;9818;48.382;10.850;2022-11-11T07:03:36;3.50;99.90
19365;DHT22;9818;48.382;10.850;2022-11-11T07:06:05;3.50;99.90
19365;DHT22;9818;48.382;10.850;2022-11-11T07:08:34;3.70;99.90
19365;DHT22;9818;48.382;10.850;2022-11-11T07:11:02;3.80;99.90
19365;DHT22;9818;48.382;10.850;2022-11-11T07:13:30;4.00;99.90
19365;DHT22;9818;48.382;10.850;2022-11-11T07:15:59;4.30;99.90
19365;DHT22;9818;48.382;10.850;2022-11-11T07:18:30;4.60;99.90
19365;DHT22;9818;48.382;10.850;2022-11-11T07:20:58;4.70;99.90
19365;DHT22;9818;48.382;10.850;2022-11-11T07:23:26;5.00;99.90
19365;DHT22;9818;48.382;10.850;2022-11-11T07:25:55;5.40;99.90
19365;DHT22;9818;48.382;10.850;2022-11-11T07:28:23;5.50;99.90
19365;DHT22;9818;48.382;10.850;2022-11-11T07:30:52;5.50;99.90
19365;DHT22;9818;48.382;10.850;2022-11-11T07:33:20;5.80;99.90
19365;DHT22;9818;48.382;10.850;2022-11-11T07:35:51;5.90;99.90
19365;DHT22;9818;48.382;10.850;2022-11-11T07:38:20;5.80;99.90
19365;DHT22;9818;48.382;10.850;2022-11-11T07:40:48;6.10;99.90
19365;DHT22;9818;48.382;10.850;2022-11-11T07:43:16;6.30;99.90
19365;DHT22;9818;48.382;10.850;2022-11-11T07:45:45;6.40;99.90
19365;DHT22;9818;48.382;10.850;2022-11-11T07:48:13;6.70;99.90
19365;DHT22;9818;48.382;10.850;2022-11-11T07:50:41;6.50;99.90
19365;DHT22;9818;48.382;10.850;2022-11-11T07:53:12;6.70;99.90
19365;DHT22;9818;48.382;10.850;2022-11-11T07:55:41;6.80;99.90
19365;DHT22;9818;48.382;10.850;2022-11-11T07:58:09;6.90;99.90
19365;DHT22;9818;48.382;10.850;2022-11-11T08:00:38;6.90;99.90
19365;DHT22;9818;48.382;10.850;2022-11-11T08:03:06;6.80;99.90
19365;DHT22;9818;48.382;10.850;2022-11-11T08:05:35;6.70;99.90
19365;DHT22;9818;48.382;10.850;2022-11-11T08:08:04;6.70;99.90
19365;DHT22;9818;48.382;10.850;2022-11-11T08:10:35;6.90;99.90
19365;DHT22;9818;48.382;10.850;2022-11-11T08:13:04;7.40;99.90
19365;DHT22;9818;48.382;10.850;2022-11-11T08:15:44;7.30;99.90
19365;DHT22;9818;48.382;10.850;2022-11-11T08:18:15;7.40;99.90
19365;DHT22;9818;48.382;10.850;2022-11-11T08:20:43;7.30;99.90
19365;DHT22;9818;48.382;10.850;2022-11-11T08:23:11;7.00;99.90
19365;DHT22;9818;48.382;10.850;2022-11-11T08:25:48;7.00;99.90
19365;DHT22;9818;48.382;10.850;2022-11-11T08:28:17;7.30;99.90
19365;DHT22;9818;48.382;10.850;2022-11-11T08:30:45;7.60;99.90
19365;DHT22;9818;48.382;10.850;2022-11-11T08:33:14;8.10;99.90
19365;DHT22;9818;48.382;10.850;2022-11-11T08:35:42;8.50;99.90
19365;DHT22;9818;48.382;10.850;2022-11-11T08:38:11;9.00;99.90
19365;DHT22;9818;48.382;10.850;2022-11-11T08:40:39;9.50;99.90
19365;DHT22;9818;48.382;10.850;2022-11-11T08:43:10;9.30;99.90
19365;DHT22;9818;48.382;10.850;2022-11-11T08:45:39;8.80;99.90
19365;DHT22;9818;48.382;10.850;2022-11-11T08:48:08;8.60;99.90
19365;DHT22;9818;48.382;10.850;2022-11-11T08:50:37;8.70;99.90
19365;DHT22;9818;48.382;10.850;2022-11-11T08:53:06;8.90;99.90
19365;DHT22;9818;48.382;10.850;2022-11-11T08:55:35;9.40;99.90
19365;DHT22;9818;48.382;10.850;2022-11-11T08:58:05;10.10;99.90
19365;DHT22;9818;48.382;10.850;2022-11-11T09:00:36;10.30;99.90
19365;DHT22;9818;48.382;10.850;2022-11-11T09:03:05;10.60;99.90
19365;DHT22;9818;48.382;10.850;2022-11-11T09:05:36;10.30;99.90
19365;DHT22;9818;48.382;10.850;2022-11-11T09:08:05;10.30;99.90
19365;DHT22;9818;48.382;10.850;2022-11-11T09:10:34;10.40;99.90
19365;DHT22;9818;48.382;10.850;2022-11-11T09:13:02;11.20;99.90
19365;DHT22;9818;48.382;10.850;2022-11-11T09:15:31;11.60;99.90
19365;DHT22;9818;48.382;10.850;2022-11-11T09:18:02;12.60;99.90
19365;DHT22;9818;48.382;10.850;2022-11-11T09:20:31;13.30;99.90
19365;DHT22;9818;48.382;10.850;2022-11-11T09:23:00;14.00;99.90
19365;DHT22;9818;48.382;10.850;2022-11-11T09:25:28;13.80;99.90
19365;DHT22;9818;48.382;10.850;2022-11-11T09:27:58;13.20;99.90
19365;DHT22;9818;48.382;10.850;2022-11-11T09:30:28;12.50;99.90
19365;DHT22;9818;48.382;10.850;2022-11-11T09:33:03;12.30;99.90
19365;DHT22;9818;48.382;10.850;2022-11-11T09:35:32;11.80;99.90
19365;DHT22;9818;48.382;10.850;2022-11-11T09:38:01;13.20;99.90
19365;DHT22;9818;48.382;10.850;2022-11-11T09:40:38;14.20;99.90
19365;DHT22;9818;48.382;10.850;2022-11-11T09:43:17;14.50;99.90
19365;DHT22;9818;48.382;10.850;2022-11-11T09:46:01;13.10;99.90
19365;DHT22;9818;48.382;10.850;2022-11-11T09:48:42;12.20;99.90
19365;DHT22;9818;48.382;10.850;2022-11-11T09:51:15;13.10;99.90
19365;DHT22;9818;48.382;10.850;2022-11-11T09:53:46;13.30;99.90
19365;DHT22;9818;48.382;10.850;2022-11-11T09:56:17;12.80;99.90
19365;DHT22;9818;48.382;10.850;2022-11-11T09:58:47;13.30;99.90
19365;DHT22;9818;48.382;10.850;2022-11-11T10:01:18;13.50;99.90
19365;DHT22;9818;48.382;10.850;2022-11-11T10:03:53;13.10;99.90
19365;DHT22;9818;48.382;10.850;2022-11-11T10:06:25;12.70;99.90
19365;DHT22;9818;48.382;10.850;2022-11-11T10:08:55;12.20;99.90
19365;DHT22;9818;48.382;10.850;2022-11-11T10:11:33;13.40;99.90
19365;DHT22;9818;48.382;10.850;2022-11-11T10:14:06;13.40;99.90
19365;DHT22;9818;48.382;10.850;2022-11-11T10:16:36;13.10;99.90
19365;DHT22;9818;48.382;10.850;2022-11-11T10:19:13;13.40;99.90
19365;DHT22;9818;48.382;10.850;2022-11-11T10:21:47;14.00;99.90
19365;DHT22;9818;48.382;10.850;2022-11-11T10:24:20;15.00;99.90
19365;DHT22;9818;48.382;10.850;2022-11-11T10:26:49;14.90;99.90
19365;DHT22;9818;48.382;10.850;2022-11-11T10:29:18;14.30;99.90
19365;DHT22;9818;48.382;10.850;2022-11-11T10:31:49;14.60;99.90
19365;DHT22;9818;48.382;10.850;2022-11-11T10:34:22;14.80;99.90
19365;DHT22;9818;48.382;10.850;2022-11-11T10:36:53;14.90;99.90
19365;DHT22;9818;48.382;10.850;2022-11-11T10:39:23;14.40;99.90
19365;DHT22;9818;48.382;10.850;2022-11-11T10:41:53;15.30;99.90
19365;DHT22;9818;48.382;10.850;2022-11-11T10:44:23;15.30;99.90
19365;DHT22;9818;48.382;10.850;2022-11-11T10:46:55;15.00;99.90
19365;DHT22;9818;48.382;10.850;2022-11-11T10:49:28;14.90;99.90
19365;DHT22;9818;48.382;10.850;2022-11-11T10:52:00;15.70;99.90
19365;DHT22;9818;48.382;10.850;2022-11-11T10:54:31;15.90;99.90
19365;DHT22;9818;48.382;10.850;2022-11-11T10:57:01;15.10;99.90
19365;DHT22;9818;48.382;10.850;2022-11-11T10:59:32;14.70;99.90
19365;DHT22;9818;48.382;10.850;2022-11-11T11:02:08;14.60;99.90
19365;DHT22;9818;48.382;10.850;2022-11-11T11:04:45;14.50;99.90
19365;DHT22;9818;48.382;10.850;2022-11-11T11:07:14;14.20;99.90
19365;DHT22;9818;48.382;10.850;2022-11-11T11:09:47;14.20;99.90
19365;DHT22;9818;48.382;10.850;2022-11-11T11:12:17;13.30;99.90
19365;DHT22;9818;48.382;10.850;2022-11-11T11:14:48;13.80;99.90
19365;DHT22;9818;48.382;10.850;2022-11-11T11:17:19;13.00;99.90
19365;DHT22;9818;48.382;10.850;2022-11-11T11:19:54;12.70;99.90
19365;DHT22;9818;48.382;10.850;2022-11-11T11:22:47;13.00;99.90
19365;DHT22;9818;48.382;10.850;2022-11-11T11:25:16;12.90;99.90
19365;DHT22;9818;48.382;10.850;2022-11-11T11:27:46;12.80;99.90
19365;DHT22;9818;48.382;10.850;2022-11-11T11:30:16;11.60;99.90
19365;DHT22;9818;48.382;10.850;2022-11-11T11:32:54;11.90;99.90
19365;DHT22;9818;48.382;10.850;2022-11-11T11:35:32;12.40;99.90
19365;DHT22;9818;48.382;10.850;2022-11-11T11:38:01;12.30;99.90
19365;DHT22;9818;48.382;10.850;2022-11-11T11:43:29;12.50;99.90
19365;DHT22;9818;48.382;10.850;2022-11-11T11:45:59;12.40;99.90
19365;DHT22;9818;48.382;10.850;2022-11-11T11:48:32;12.50;99.90
19365;DHT22;9818;48.382;10.850;2022-11-11T11:51:07;12.10;99.90
19365;DHT22;9818;48.382;10.850;2022-11-11T11:53:41;12.60;99.90
19365;DHT22;9818;48.382;10.850;2022-11-11T11:56:14;12.70;99.90
19365;DHT22;9818;48.382;10.850;2022-11-11T11:58:52;13.00;99.90
19365;DHT22;9818;48.382;10.850;2022-11-11T12:01:22;13.70;99.90
19365;DHT22;9818;48.382;10.850;2022-11-11T12:04:05;13.70;99.90
19365;DHT22;9818;48.382;10.850;2022-11-11T12:06:42;13.70;99.90
19365;DHT22;9818;48.382;10.850;2022-11-11T12:09:17;13.30;99.90
19365;DHT22;9818;48.382;10.850;2022-11-11T12:11:52;13.30;99.90
19365;DHT22;9818;48.382;10.850;2022-11-11T12:14:30;13.40;99.90
19365;DHT22;9818;48.382;10.850;2022-11-11T12:17:06;13.10;99.90
19365;DHT22;9818;48.382;10.850;2022-11-11T12:19:41;13.20;99.90
19365;DHT22;9818;48.382;10.850;2022-11-11T12:22:15;13.40;99.90
19365;DHT22;9818;48.382;10.850;2022-11-11T12:24:52;13.40;99.90
19365;DHT22;9818;48.382;10.850;2022-11-11T12:27:24;13.20;99.90
19365;DHT22;9818;48.382;10.850;2022-11-11T12:30:00;13.10;99.90
19365;DHT22;9818;48.382;10.850;2022-11-11T12:32:43;13.50;99.90
19365;DHT22;9818;48.382;10.850;2022-11-11T12:35:19;13.60;99.90
19365;DHT22;9818;48.382;10.850;2022-11-11T12:37:53;13.20;99.90
19365;DHT22;9818;48.382;10.850;2022-11-11T12:40:26;13.50;99.90
19365;DHT22;9818;48.382;10.850;2022-11-11T12:43:02;12.90;99.90
19365;DHT22;9818;48.382;10.850;2022-11-11T12:45:33;12.00;99.90
19365;DHT22;9818;48.382;10.850;2022-11-11T12:48:04;12.00;99.90
19365;DHT22;9818;48.382;10.850;2022-11-11T12:50:35;12.50;99.90
19365;DHT22;9818;48.382;10.850;2022-11-11T12:53:13;12.90;99.90
19365;DHT22;9818;48.382;10.850;2022-11-11T12:55:46;13.00;99.90
19365;DHT22;9818;48.382;10.850;2022-11-11T12:58:25;12.10;99.90
19365;DHT22;9818;48.382;10.850;2022-11-11T13:01:00;12.10;99.90
19365;DHT22;9818;48.382;10.850;2022-11-11T13:03:36;11.70;99.90
19365;DHT22;9818;48.382;10.850;2022-11-11T13:06:11;11.80;99.90
19365;DHT22;9818;48.382;10.850;2022-11-11T13:11:34;11.60;99.90
19365;DHT22;9818;48.382;10.850;2022-11-11T13:14:08;10.80;99.90
19365;DHT22;9818;48.382;10.850;2022-11-11T13:16:39;11.00;99.90
19365;DHT22;9818;48.382;10.850;2022-11-11T13:19:10;11.20;99.90
19365;DHT22;9818;48.382;10.850;2022-11-11T13:21:43;11.20;99.90
19365;DHT22;9818;48.382;10.850;2022-11-11T13:24:14;11.10;99.90
19365;DHT22;9818;48.382;10.850;2022-11-11T13:26:46;10.70;99.90
19365;DHT22;9818;48.382;10.850;2022-11-11T13:29:23;10.40;99.90
19365;DHT22;9818;48.382;10.850;2022-11-11T13:31:59;10.20;99.90
19365;DHT22;9818;48.382;10.850;2022-11-11T13:34:28;10.10;99.90
19365;DHT22;9818;48.382;10.850;2022-11-11T13:36:59;10.00;99.90
19365;DHT22;9818;48.382;10.850;2022-11-11T13:39:30;10.20;99.90
19365;DHT22;9818;48.382;10.850;2022-11-11T13:42:02;10.50;99.90
19365;DHT22;9818;48.382;10.850;2022-11-11T13:44:31;10.40;99.90
19365;DHT22;9818;48.382;10.850;2022-11-11T13:47:01;9.70;99.90
19365;DHT22;9818;48.382;10.850;2022-11-11T13:49:31;9.40;99.90
19365;DHT22;9818;48.382;10.850;2022-11-11T13:52:02;9.40;99.90
19365;DHT22;9818;48.382;10.850;2022-11-11T13:54:32;9.70;99.90
19365;DHT22;9818;48.382;10.850;2022-11-11T13:57:04;9.20;99.90
19365;DHT22;9818;48.382;10.850;2022-11-11T13:59:35;9.00;99.90
19365;DHT22;9818;48.382;10.850;2022-11-11T14:02:25;8.80;99.90
19365;DHT22;9818;48.382;10.850;2022-11-11T14:07:46;8.90;99.90
19365;DHT22;9818;48.382;10.850;2022-11-11T14:13:34;8.90;99.90
19365;DHT22;9818;48.382;10.850;2022-11-11T14:15:59;8.80;99.90
19365;DHT22;9818;48.382;10.850;2022-11-11T14:18:37;9.00;99.90
19365;DHT22;9818;48.382;10.850;2022-11-11T14:21:07;9.00;99.90
19365;DHT22;9818;48.382;10.850;2022-11-11T14:23:36;8.20;99.90
19365;DHT22;9818;48.382;10.850;2022-11-11T14:26:15;8.10;99.90
19365;DHT22;9818;48.382;10.850;2022-11-11T14:28:53;8.20;99.90
19365;DHT22;9818;48.382;10.850;2022-11-11T14:31:36;8.10;99.90
19365;DHT22;9818;48.382;10.850;2022-11-11T14:34:12;8.10;99.90
19365;DHT22;9818;48.382;10.850;2022-11-11T14:36:43;8.00;99.90
19365;DHT22;9818;48.382;10.850;2022-11-11T14:39:26;7.90;99.90
19365;DHT22;9818;48.382;10.850;2022-11-11T14:41:57;7.60;99.90
19365;DHT22;9818;48.382;10.850;2022-11-11T14:44:42;7.60;99.90
19365;DHT22;9818;48.382;10.850;2022-11-11T14:47:17;7.80;99.90
19365;DHT22;9818;48.382;10.850;2022-11-11T14:49:46;7.80;99.90
19365;DHT22;9818;48.382;10.850;2022-11-11T14:52:17;7.60;99.90
19365;DHT22;9818;48.382;10.850;2022-11-11T14:57:36;7.40;99.90
19365;DHT22;9818;48.382;10.850;2022-11-11T15:00:09;7.60;99.90
19365;DHT22;9818;48.382;10.850;2022-11-11T15:02:39;7.60;99.90
19365;DHT22;9818;48.382;10.850;2022-11-11T15:05:10;7.80;99.90
19365;DHT22;9818;48.382;10.850;2022-11-11T15:07:44;8.10;99.90
19365;DHT22;9818;48.382;10.850;2022-11-11T15:10:19;8.20;99.90
19365;DHT22;9818;48.382;10.850;2022-11-11T15:13:03;8.40;99.90
19365;DHT22;9818;48.382;10.850;2022-11-11T15:15:40;8.40;99.90
19365;DHT22;9818;48.382;10.850;2022-11-11T15:18:13;8.50;99.90
19365;DHT22;9818;48.382;10.850;2022-11-11T15:20:49;8.50;99.90
19365;DHT22;9818;48.382;10.850;2022-11-11T15:23:23;8.40;99.90
19365;DHT22;9818;48.382;10.850;2022-11-11T15:25:55;8.10;99.90
19365;DHT22;9818;48.382;10.850;2022-11-11T15:28:34;8.20;99.90
19365;DHT22;9818;48.382;10.850;2022-11-11T15:31:12;7.60;99.90
19365;DHT22;9818;48.382;10.850;2022-11-11T15:33:48;7.30;99.90
19365;DHT22;9818;48.382;10.850;2022-11-11T15:36:23;7.40;99.90
19365;DHT22;9818;48.382;10.850;2022-11-11T15:38:54;7.30;99.90
19365;DHT22;9818;48.382;10.850;2022-11-11T15:41:23;7.10;99.90
19365;DHT22;9818;48.382;10.850;2022-11-11T15:43:53;7.00;99.90
19365;DHT22;9818;48.382;10.850;2022-11-11T15:46:26;7.00;99.90
19365;DHT22;9818;48.382;10.850;2022-11-11T15:48:55;6.90;99.90
19365;DHT22;9818;48.382;10.850;2022-11-11T15:51:27;6.90;99.90
19365;DHT22;9818;48.382;10.850;2022-11-11T15:56:41;6.80;99.90
19365;DHT22;9818;48.382;10.850;2022-11-11T15:59:16;7.00;99.90
19365;DHT22;9818;48.382;10.850;2022-11-11T16:01:47;7.20;99.90
19365;DHT22;9818;48.382;10.850;2022-11-11T16:04:16;7.20;99.90
19365;DHT22;9818;48.382;10.850;2022-11-11T16:06:47;6.90;99.90
19365;DHT22;9818;48.382;10.850;2022-11-11T16:09:18;7.10;99.90
19365;DHT22;9818;48.382;10.850;2022-11-11T16:11:47;7.10;99.90
19365;DHT22;9818;48.382;10.850;2022-11-11T16:14:19;7.10;99.90
19365;DHT22;9818;48.382;10.850;2022-11-11T16:16:52;7.00;99.90
19365;DHT22;9818;48.382;10.850;2022-11-11T16:19:26;7.00;99.90
19365;DHT22;9818;48.382;10.850;2022-11-11T16:21:57;7.10;99.90
19365;DHT22;9818;48.382;10.850;2022-11-11T16:24:28;7.10;99.90
19365;DHT22;9818;48.382;10.850;2022-11-11T16:26:57;7.10;99.90
19365;DHT22;9818;48.382;10.850;2022-11-11T16:29:26;7.10;99.90
19365;DHT22;9818;48.382;10.850;2022-11-11T16:31:59;6.90;99.90
19365;DHT22;9818;48.382;10.850;2022-11-11T16:34:35;6.90;99.90
19365;DHT22;9818;48.382;10.850;2022-11-11T16:37:05;7.00;99.90
19365;DHT22;9818;48.382;10.850;2022-11-11T16:39:34;7.10;99.90
19365;DHT22;9818;48.382;10.850;2022-11-11T16:42:03;7.20;99.90